Afonso Pena Airport
SBCT : rendu visible

Aérodrome :











RETROUVEZ-NOUS SUR...

 
LOGIN :

S'inscrire | Disclaimer

   EN    FR    IT 

 









Légende :    VFR   VFR Marginal   IFR   IFR Intensif   IFR Très Intensif
Visi : 
Plafond : 
>= 8 km
>= 3000ft
5 à 8 km
1000 à 3000 ft
1500m à 5 km
500 à 1000 ft
800 à 1500m
200 à 500 ft
< 800m
< 200 ft
Symboles :   Orages  Brouillard  Fortes neiges  Fortes précipitations  Vent > 20 kt






- Altitude de l'aérodrome : 2988 ft
- Code IATA : CWB


SBCT - Afonso Pena

DERNIER METAR :
  • 041800Z VRB05KT CAVOK 25/08 Q1014

METARs EXPIRÉS :
  • 041700Z VRB04KT CAVOK 24/08 Q1015
  • 041600Z 31006KT 240V050 CAVOK 23/08 Q1016

TAF TAF SBCT
Valide du 04 à 18h jusqu'au 05 à 18h UTC


041500Z 0418/0518 11006KT CAVOK TN11/0509Z TX25/0518Z
BECMG 0420/0422 9999 FEW025
BECMG 0422/0424 8000 SCT005
BECMG 0500/0502 07005KT BKN004
PROB40 0502/0508 2000 BR
BECMG 0510/0512 09005KT 9999 SCT012
BECMG 0512/0514 CAVOK RMK PDJ



MET'MAP, la Météo Aéronautique d'un coup d'oeil ! - Copyright ORBIFLY Décembre 2007 - Disclaimer

ORBIFLY MET'MAP TEAM :

Programmation & Développement : Alexandra Zaïnal
Sur une idée originale de : Baudouin d'Aumeries
Assistance à la programmation : Marc-Olivier Méhu
Soutien technique & logistique : Manuel Goepfert

Contact : metmap@orbifly.com




SOURCES & CREDITS :

   NOAA       Earth
Advisory